createdAt,value
2022-12-11T00:02:31.650Z,2.00
2022-12-11T00:06:42.753Z,2.10
2022-12-11T00:10:52.071Z,2.00
2022-12-11T00:15:01.212Z,1.90
2022-12-11T00:19:10.332Z,1.80
2022-12-11T00:23:21.254Z,1.80
2022-12-11T00:27:30.351Z,1.90
2022-12-11T00:31:39.462Z,1.90
2022-12-11T00:35:49.311Z,1.90
2022-12-11T00:40:00.140Z,1.80
2022-12-11T00:44:09.270Z,1.80
2022-12-11T00:48:18.460Z,1.80
2022-12-11T00:52:27.670Z,1.90
2022-12-11T00:56:38.431Z,1.90
2022-12-11T01:00:50.160Z,1.80
2022-12-11T01:04:59.253Z,1.80
2022-12-11T01:09:25.468Z,1.70
2022-12-11T01:13:36.273Z,1.80
2022-12-11T01:17:45.672Z,1.70
2022-12-11T01:21:54.713Z,1.70
2022-12-11T01:26:08.774Z,1.70
2022-12-11T01:30:19.972Z,1.70
2022-12-11T01:34:31.351Z,1.70
2022-12-11T01:38:40.552Z,1.70
2022-12-11T01:42:49.711Z,1.70
2022-12-11T01:47:01.232Z,1.60
2022-12-11T01:51:10.348Z,1.60
2022-12-11T01:55:20.852Z,1.70
2022-12-11T01:59:34.375Z,1.70
2022-12-11T02:03:45.412Z,1.60
2022-12-11T02:07:58.851Z,1.40
2022-12-11T02:12:16.053Z,1.40
2022-12-11T02:16:34.273Z,1.40
2022-12-11T02:20:52.631Z,1.50
2022-12-11T02:25:15.114Z,1.50
2022-12-11T02:29:31.813Z,1.60
2022-12-11T02:33:48.156Z,1.60
2022-12-11T02:38:00.513Z,1.80
2022-12-11T02:42:11.392Z,1.60
2022-12-11T02:46:23.836Z,1.50
2022-12-11T02:50:34.152Z,1.40
2022-12-11T02:54:46.553Z,1.40
2022-12-11T02:59:01.514Z,1.40
2022-12-11T03:03:12.294Z,1.50
2022-12-11T03:07:26.436Z,1.50
2022-12-11T03:11:35.552Z,1.40
2022-12-11T03:15:57.184Z,1.20
2022-12-11T03:20:14.182Z,1.20
2022-12-11T03:24:29.533Z,1.30
2022-12-11T03:28:43.955Z,1.30
2022-12-11T03:32:56.632Z,1.30
2022-12-11T03:37:09.454Z,1.20
2022-12-11T03:41:21.052Z,1.20
2022-12-11T03:45:31.833Z,1.30
2022-12-11T03:49:43.917Z,1.30
2022-12-11T03:53:55.132Z,1.20
2022-12-11T03:58:04.453Z,1.20
2022-12-11T04:02:13.557Z,1.30
2022-12-11T04:06:22.893Z,1.40
2022-12-11T04:10:33.452Z,1.30
2022-12-11T04:14:59.773Z,1.30
2022-12-11T04:19:25.832Z,1.20
2022-12-11T04:23:51.751Z,1.10
2022-12-11T04:28:02.380Z,1.20
2022-12-11T04:32:11.453Z,1.20
2022-12-11T04:36:20.493Z,1.20
2022-12-11T04:40:29.630Z,1.20
2022-12-11T04:44:40.172Z,1.20
2022-12-11T04:48:55.358Z,1.20
2022-12-11T04:53:04.695Z,1.60
2022-12-11T04:57:13.732Z,1.50
2022-12-11T05:01:24.977Z,1.40
2022-12-11T05:05:33.955Z,1.30
2022-12-11T05:09:43.089Z,1.30
2022-12-11T05:13:52.253Z,1.30
2022-12-11T05:18:02.972Z,1.20
2022-12-11T05:22:12.334Z,0.90
2022-12-11T05:26:22.736Z,0.80
2022-12-11T05:30:31.853Z,0.70
2022-12-11T05:34:42.555Z,0.80
2022-12-11T05:38:52.375Z,0.80
2022-12-11T05:43:01.553Z,0.80
2022-12-11T05:47:10.553Z,0.70
2022-12-11T05:51:21.816Z,0.70
2022-12-11T05:55:30.929Z,0.70
2022-12-11T05:59:40.097Z,0.80
2022-12-11T06:03:50.434Z,0.80
2022-12-11T06:08:01.119Z,0.70
2022-12-11T06:12:10.271Z,0.90
2022-12-11T06:16:19.531Z,1.20
2022-12-11T06:20:28.751Z,1.40
2022-12-11T06:24:39.533Z,1.50
2022-12-11T06:28:48.998Z,1.50
2022-12-11T06:32:59.729Z,1.50
2022-12-11T06:37:08.811Z,1.50
2022-12-11T06:41:19.475Z,1.60
2022-12-11T06:45:28.650Z,1.70
2022-12-11T06:49:37.834Z,1.70
2022-12-11T06:53:47.531Z,1.60
2022-12-11T06:57:58.193Z,1.60
2022-12-11T07:02:07.363Z,1.60
2022-12-11T07:06:17.481Z,1.50
2022-12-11T07:10:27.495Z,1.50
2022-12-11T07:14:38.231Z,1.50
2022-12-11T07:18:51.236Z,1.40
2022-12-11T07:23:00.554Z,1.50
2022-12-11T07:27:09.773Z,1.30
2022-12-11T07:31:25.281Z,1.30
2022-12-11T07:35:36.274Z,1.30
2022-12-11T07:39:45.273Z,1.30
2022-12-11T07:43:54.352Z,1.30
2022-12-11T07:48:05.193Z,1.30
2022-12-11T07:52:14.131Z,1.20
2022-12-11T07:56:23.670Z,1.00
2022-12-11T08:00:32.871Z,0.90
2022-12-11T08:04:43.449Z,1.00
2022-12-11T08:08:53.413Z,1.10
2022-12-11T08:13:02.631Z,1.10
2022-12-11T08:17:11.750Z,1.00
2022-12-11T08:21:23.771Z,1.10
2022-12-11T08:25:32.832Z,1.20
2022-12-11T08:29:42.132Z,1.40
2022-12-11T08:33:51.871Z,1.30
2022-12-11T08:38:02.410Z,1.30
2022-12-11T08:42:11.429Z,1.40
2022-12-11T08:46:20.699Z,1.50
2022-12-11T08:50:30.331Z,1.60
2022-12-11T08:54:41.381Z,1.60
2022-12-11T08:58:50.831Z,1.60
2022-12-11T09:02:59.993Z,1.60
2022-12-11T09:07:08.990Z,1.80
2022-12-11T09:11:22.990Z,1.90
2022-12-11T09:15:32.058Z,2.00
2022-12-11T09:19:41.172Z,2.00
2022-12-11T09:23:51.050Z,2.10
2022-12-11T09:28:01.831Z,2.00
2022-12-11T09:32:11.273Z,2.10
2022-12-11T09:36:21.651Z,2.30
2022-12-11T09:40:30.906Z,2.30
2022-12-11T09:44:45.308Z,2.40
2022-12-11T09:48:54.745Z,2.50
2022-12-11T09:53:13.146Z,2.60
2022-12-11T09:57:40.929Z,2.70
2022-12-11T10:01:57.130Z,2.70
2022-12-11T10:06:14.149Z,2.80
2022-12-11T10:10:37.628Z,2.90
2022-12-11T10:14:57.116Z,3.00
2022-12-11T10:19:11.968Z,3.00
2022-12-11T10:23:23.986Z,2.90
2022-12-11T10:27:35.326Z,3.00
2022-12-11T10:31:51.768Z,3.20
2022-12-11T10:36:02.449Z,3.20
2022-12-11T10:40:14.074Z,3.20
2022-12-11T10:44:25.526Z,3.20
2022-12-11T10:48:35.010Z,3.30
2022-12-11T10:52:47.188Z,3.40
2022-12-11T10:56:57.366Z,3.50
2022-12-11T11:01:10.151Z,3.50
2022-12-11T11:05:31.149Z,3.50
2022-12-11T11:09:42.107Z,3.30
2022-12-11T11:13:51.629Z,3.40
2022-12-11T11:18:18.247Z,3.50
2022-12-11T11:22:27.988Z,3.60
2022-12-11T11:27:11.746Z,3.70
2022-12-11T11:31:10.288Z,3.80
2022-12-11T11:35:22.125Z,3.80
2022-12-11T11:39:37.166Z,3.90
2022-12-11T11:43:52.930Z,3.90
2022-12-11T11:48:12.467Z,3.90
2022-12-11T11:52:27.806Z,3.90
2022-12-11T11:56:39.449Z,4.10
2022-12-11T12:00:50.610Z,4.10
2022-12-11T12:04:59.788Z,4.10
2022-12-11T12:09:23.975Z,3.90
2022-12-11T12:13:50.409Z,3.90
2022-12-11T12:18:12.787Z,4.00
2022-12-11T12:22:36.209Z,4.00
2022-12-11T12:26:54.147Z,3.90
2022-12-11T12:31:19.183Z,4.00
2022-12-11T12:35:38.868Z,3.90
2022-12-11T12:39:56.327Z,3.70
2022-12-11T12:44:16.879Z,3.60
2022-12-11T12:48:28.529Z,3.60
2022-12-11T12:52:41.605Z,3.60
2022-12-11T12:56:51.428Z,3.80
2022-12-11T13:01:10.294Z,3.70
2022-12-11T13:05:25.211Z,3.60
2022-12-11T13:09:37.349Z,3.70
2022-12-11T13:13:54.980Z,3.90
2022-12-11T13:18:06.706Z,4.00
2022-12-11T13:22:25.307Z,4.00
2022-12-11T13:26:37.130Z,4.00
2022-12-11T13:30:47.186Z,4.00
2022-12-11T13:34:59.028Z,4.00
2022-12-11T13:39:17.387Z,4.00
2022-12-11T13:43:31.548Z,4.10
2022-12-11T13:47:42.406Z,4.00
2022-12-11T13:51:57.807Z,3.70
2022-12-11T13:56:09.065Z,3.70
2022-12-11T14:00:25.946Z,3.70
2022-12-11T14:04:36.326Z,3.80
2022-12-11T14:08:47.725Z,3.70
2022-12-11T14:13:03.147Z,3.80
2022-12-11T14:17:17.489Z,3.90
2022-12-11T14:21:27.649Z,4.10
2022-12-11T14:25:36.986Z,4.20
2022-12-11T14:29:46.366Z,4.20
2022-12-11T14:34:03.168Z,4.30
2022-12-11T14:38:19.866Z,4.10
2022-12-11T14:42:32.088Z,4.10
2022-12-11T14:46:45.766Z,4.00
2022-12-11T14:50:59.434Z,4.00
2022-12-11T14:55:14.788Z,3.80
2022-12-11T14:59:31.594Z,3.60
2022-12-11T15:03:44.905Z,3.70
2022-12-11T15:08:01.948Z,3.60
2022-12-11T15:12:13.604Z,3.60
2022-12-11T15:16:24.961Z,3.60
2022-12-11T15:20:34.249Z,3.70
2022-12-11T15:24:46.868Z,3.80
2022-12-11T15:29:02.345Z,3.70
2022-12-11T15:33:23.639Z,3.80
2022-12-11T15:37:36.529Z,3.80
2022-12-11T15:41:47.266Z,3.60
2022-12-11T15:45:56.529Z,3.60
2022-12-11T15:50:17.325Z,3.50
2022-12-11T15:54:26.507Z,3.60
2022-12-11T15:58:37.909Z,3.60
2022-12-11T16:02:47.148Z,3.60
2022-12-11T16:06:56.349Z,3.60
2022-12-11T16:11:05.507Z,3.40
2022-12-11T16:15:23.099Z,3.20
2022-12-11T16:19:33.008Z,3.10
2022-12-11T16:23:42.166Z,3.10
2022-12-11T16:27:51.326Z,3.10
2022-12-11T16:32:02.008Z,3.20
2022-12-11T16:36:16.026Z,3.20
2022-12-11T16:40:25.747Z,3.20
2022-12-11T16:44:37.316Z,3.20
2022-12-11T16:48:52.165Z,3.10
2022-12-11T16:53:01.630Z,3.00
2022-12-11T16:57:10.805Z,2.90
2022-12-11T17:01:19.987Z,2.70
2022-12-11T17:05:30.752Z,2.50
2022-12-11T17:09:40.186Z,2.40
2022-12-11T17:13:50.196Z,2.50
2022-12-11T17:17:59.505Z,2.50
2022-12-11T17:22:10.187Z,2.60
2022-12-11T17:26:20.214Z,2.70
2022-12-11T17:30:29.547Z,2.70
2022-12-11T17:34:38.935Z,2.70
2022-12-11T17:38:50.628Z,2.80
2022-12-11T17:42:59.745Z,2.70
2022-12-11T17:47:11.197Z,2.70
2022-12-11T17:51:24.741Z,2.70
2022-12-11T17:55:36.371Z,2.70
2022-12-11T17:59:45.549Z,2.70
2022-12-11T18:03:54.720Z,2.70
2022-12-11T18:08:03.907Z,2.50
2022-12-11T18:12:14.667Z,2.30
2022-12-11T18:16:26.728Z,2.40
2022-12-11T18:20:36.547Z,2.40
2022-12-11T18:24:45.808Z,2.50
2022-12-11T18:28:56.605Z,2.50
2022-12-11T18:33:05.946Z,2.20
2022-12-11T18:37:15.007Z,1.90
2022-12-11T18:41:24.052Z,1.90
2022-12-11T18:45:34.621Z,2.00
2022-12-11T18:49:43.807Z,2.00
2022-12-11T18:53:53.530Z,2.00
2022-12-11T18:58:02.625Z,2.00
2022-12-11T19:02:13.717Z,2.00
2022-12-11T19:06:26.708Z,2.00
2022-12-11T19:10:35.705Z,2.10
2022-12-11T19:14:44.807Z,2.20
2022-12-11T19:18:55.707Z,2.30
2022-12-11T19:23:05.986Z,2.30
2022-12-11T19:27:15.066Z,2.30
2022-12-11T19:31:25.201Z,2.40
2022-12-11T19:35:36.108Z,2.40
2022-12-11T19:39:45.285Z,2.40
2022-12-11T19:43:55.167Z,2.30
2022-12-11T19:48:04.467Z,2.30
2022-12-11T19:52:15.087Z,2.30
2022-12-11T19:56:24.387Z,2.30
2022-12-11T20:00:33.461Z,2.10
2022-12-11T20:04:42.726Z,1.90
2022-12-11T20:08:53.373Z,2.00
2022-12-11T20:13:02.405Z,2.00
2022-12-11T20:17:14.494Z,2.00
2022-12-11T20:21:24.605Z,2.00
2022-12-11T20:25:35.390Z,2.00
2022-12-11T20:29:44.388Z,1.80
2022-12-11T20:33:54.947Z,1.80
2022-12-11T20:38:04.086Z,1.80
2022-12-11T20:42:14.749Z,1.90
2022-12-11T20:46:26.485Z,1.80
2022-12-11T20:50:35.566Z,1.80
2022-12-11T20:54:44.886Z,1.70
2022-12-11T20:58:57.667Z,1.70
2022-12-11T21:03:06.828Z,1.70
2022-12-11T21:07:15.906Z,1.50
2022-12-11T21:11:24.885Z,1.30
2022-12-11T21:15:37.647Z,1.30
2022-12-11T21:19:46.769Z,1.30
2022-12-11T21:23:55.887Z,1.40
2022-12-11T21:28:05.647Z,1.30
2022-12-11T21:32:16.291Z,1.20
2022-12-11T21:36:25.565Z,1.20
2022-12-11T21:40:34.865Z,1.20
2022-12-11T21:49:14.608Z,1.20
2022-12-11T21:53:23.847Z,1.20
2022-12-11T21:57:32.957Z,1.10
2022-12-11T22:01:46.225Z,1.10
2022-12-11T22:05:57.186Z,1.10
2022-12-11T22:10:07.006Z,1.00
2022-12-11T22:14:17.886Z,1.00
2022-12-11T22:18:27.508Z,0.90
2022-12-11T22:22:38.306Z,1.00
2022-12-11T22:26:47.365Z,1.00
2022-12-11T22:30:56.702Z,1.10
2022-12-11T22:35:06.387Z,1.00
2022-12-11T22:39:17.010Z,1.00
2022-12-11T22:43:26.189Z,1.10
2022-12-11T22:47:35.450Z,1.10
2022-12-11T22:51:47.590Z,1.20
2022-12-11T22:55:58.366Z,1.30
2022-12-11T23:00:10.306Z,1.20
2022-12-11T23:04:19.569Z,1.10
2022-12-11T23:08:28.958Z,1.00
2022-12-11T23:12:39.807Z,1.10
